Time;durP1;ratioP1;P1;durP2;ratioP2;P2;SDS_P1;SDS_P2;PMS_P1;PMS_P2;Temp;Humidity;BMP_temperature;BMP_pressure;BME280_temperature;BME280_humidity;BME280_pressure;Samples;Min_cycle;Max_cycle;Signal;HPM_P1;HPM_P2
2023/01/02 00:01:23;;;;;;;35.92;19.98;;;;;;;10.12;93.22;100048.13;5052328;28;20016;-78
2023/01/02 00:03:48;;;;;;;31.60;19.83;;;;;;;10.15;93.82;100057.56;5052096;28;20492;-78
2023/01/02 00:06:16;;;;;;;36.63;21.63;;;;;;;10.13;93.28;100065.44;5052494;28;20028;-78
2023/01/02 00:08:41;;;;;;;32.42;19.75;;;;;;;10.13;93.38;100064.59;5052143;28;20024;-78
2023/01/02 00:11:07;;;;;;;35.45;23.15;;;;;;;10.10;93.37;100059.50;5051073;28;20028;-78
2023/01/02 00:13:32;;;;;;;34.90;21.60;;;;;;;10.08;93.57;100054.34;5052159;28;20025;-78
2023/01/02 00:15:57;;;;;;;30.38;20.13;;;;;;;10.02;93.63;100043.31;5051900;28;20115;-78
2023/01/02 00:18:23;;;;;;;28.92;18.83;;;;;;;9.95;93.53;100032.31;5052050;28;20027;-78
2023/01/02 00:20:48;;;;;;;21.25;15.45;;;;;;;9.96;93.62;100029.63;5051811;28;20013;-78
2023/01/02 00:23:13;;;;;;;24.80;15.80;;;;;;;9.94;93.59;100026.25;5052377;28;20107;-78
2023/01/02 00:25:39;;;;;;;26.83;14.48;;;;;;;10.08;93.66;100050.91;5051839;28;20016;-78
2023/01/02 00:28:04;;;;;;;22.88;13.40;;;;;;;10.00;93.96;100043.38;5052123;28;20496;-78
2023/01/02 00:30:29;;;;;;;26.27;13.88;;;;;;;10.07;93.79;100051.78;5051980;28;20046;-78
2023/01/02 00:32:55;;;;;;;23.85;14.27;;;;;;;10.03;93.41;100050.22;5051708;28;20040;-78
2023/01/02 00:35:20;;;;;;;22.02;14.55;;;;;;;10.01;93.35;100039.88;5051696;28;20017;-78
2023/01/02 00:37:45;;;;;;;23.48;14.70;;;;;;;9.95;93.35;100024.50;5051514;28;20021;-78
2023/01/02 00:40:12;;;;;;;23.63;14.20;;;;;;;9.98;93.34;100029.56;5051916;28;20041;-78
2023/01/02 00:42:39;;;;;;;21.40;14.95;;;;;;;9.97;93.44;100033.09;5051754;28;20021;-78
2023/01/02 00:45:05;;;;;;;22.92;14.93;;;;;;;9.94;93.36;100026.25;5051900;28;20024;-78
2023/01/02 00:47:31;;;;;;;21.45;14.98;;;;;;;9.94;93.60;100013.25;5051643;28;20020;-78
2023/01/02 00:49:56;;;;;;;26.77;15.88;;;;;;;9.85;93.34;100003.16;5051310;28;20099;-78
2023/01/02 00:52:21;;;;;;;24.70;15.50;;;;;;;9.87;93.58;100016.97;5051842;28;20067;-78
2023/01/02 00:54:47;;;;;;;28.70;15.75;;;;;;;9.85;93.56;100010.97;5051576;28;20067;-78
2023/01/02 00:57:12;;;;;;;42.30;24.27;;;;;;;9.76;93.60;100019.13;5051723;28;20364;-78
2023/01/02 00:59:37;;;;;;;41.60;24.42;;;;;;;9.80;93.87;100025.91;5051641;28;20377;-78
2023/01/02 01:02:02;;;;;;;36.28;20.45;;;;;;;9.70;93.96;100021.97;5051396;28;20024;-78
2023/01/02 01:04:31;;;;;;;31.77;18.50;;;;;;;9.64;94.18;100009.19;5051502;28;20021;-78
2023/01/02 01:06:56;;;;;;;26.83;17.85;;;;;;;9.74;94.26;100031.34;5051490;28;20048;-78
2023/01/02 01:09:21;;;;;;;26.88;18.65;;;;;;;9.75;94.49;100027.84;5051512;28;20052;-78
2023/01/02 01:11:47;;;;;;;26.58;16.95;;;;;;;9.72;94.34;100021.00;5051396;28;20048;-78
2023/01/02 01:14:12;;;;;;;23.65;15.55;;;;;;;9.74;93.97;100010.56;5051678;28;20070;-78
2023/01/02 01:16:37;;;;;;;22.02;14.32;;;;;;;9.80;93.92;100025.06;5051548;28;20017;-78
2023/01/02 01:19:03;;;;;;;27.08;16.40;;;;;;;9.87;93.78;100021.34;5051123;28;20029;-78
2023/01/02 01:21:28;;;;;;;21.45;14.02;;;;;;;9.88;93.45;100016.06;5051521;28;20017;-78
2023/01/02 01:23:54;;;;;;;23.85;14.60;;;;;;;9.85;93.03;99992.75;5051277;28;20021;-78
2023/01/02 01:26:20;;;;;;;21.90;14.40;;;;;;;9.92;93.08;100007.25;5051384;28;20025;-78
2023/01/02 01:28:46;;;;;;;24.95;15.25;;;;;;;9.95;93.05;100004.53;5051174;28;20024;-78
2023/01/02 01:31:15;;;;;;;29.50;18.75;;;;;;;9.91;92.99;100005.56;5051374;28;20027;-78
2023/01/02 01:33:42;;;;;;;26.00;16.90;;;;;;;9.91;93.18;100005.56;5051133;28;20083;-78
2023/01/02 01:36:10;;;;;;;25.67;16.02;;;;;;;9.90;93.17;100001.25;5051304;28;20029;-78
2023/01/02 01:38:36;;;;;;;24.92;15.65;;;;;;;9.89;93.08;100001.31;5051182;28;20045;-78
2023/01/02 01:41:02;;;;;;;27.67;15.80;;;;;;;9.93;93.13;100016.75;5050938;28;20078;-78
2023/01/02 01:43:34;;;;;;;23.73;14.98;;;;;;;9.94;93.00;100009.78;5051040;28;20071;-78
2023/01/02 01:46:00;;;;;;;24.08;14.73;;;;;;;9.86;93.07;99989.28;5050870;28;20072;-78
2023/01/02 01:48:26;;;;;;;27.50;15.65;;;;;;;9.94;92.97;100005.44;5051363;28;20166;-78
2023/01/02 01:50:51;;;;;;;23.23;13.88;;;;;;;9.88;92.93;99990.06;5054739;28;20107;-78
2023/01/02 01:53:20;;;;;;;21.17;13.63;;;;;;;9.94;92.97;99994.16;5054904;28;20029;-78
2023/01/02 01:55:50;;;;;;;18.70;12.38;;;;;;;9.88;92.86;99984.84;5054681;28;20025;-78
2023/01/02 01:58:34;;;;;;;20.83;13.18;;;;;;;9.82;92.82;99961.69;5054800;28;20166;-78
2023/01/02 02:01:01;;;;;;;19.17;13.40;;;;;;;9.90;92.98;99984.78;5054331;28;20032;-78
2023/01/02 02:03:30;;;;;;;23.70;13.82;;;;;;;9.95;93.06;99993.28;5054533;28;20070;-78
2023/01/02 02:05:58;;;;;;;21.00;13.05;;;;;;;9.92;93.08;99988.19;5054371;28;20360;-78
2023/01/02 02:08:36;;;;;;;20.92;14.50;;;;;;;9.92;93.05;99989.03;5054465;28;20024;-78
2023/01/02 02:11:02;;;;;;;21.65;14.05;;;;;;;9.95;93.19;99993.28;5054565;28;20021;-78
2023/01/02 02:13:32;;;;;;;21.80;13.77;;;;;;;9.92;93.08;99991.63;5054667;28;20154;-78
2023/01/02 02:16:27;;;;;;;19.85;14.00;;;;;;;9.93;93.36;99990.72;5054141;28;20483;-78
2023/01/02 02:19:36;;;;;;;20.80;13.75;;;;;;;9.85;93.56;99973.72;5031771;28;20038;-78
2023/01/02 02:22:27;;;;;;;18.50;13.00;;;;;;;9.89;93.54;99976.13;5031646;28;20500;-78
2023/01/02 02:25:16;;;;;;;20.33;13.43;;;;;;;9.87;93.71;99980.56;5031949;28;20066;-78
2023/01/02 02:28:06;;;;;;;15.00;11.35;;;;;;;9.87;93.61;99979.72;5031766;28;20346;-78
2023/01/02 02:30:38;;;;;;;20.07;13.13;;;;;;;9.84;93.72;99972.88;5015286;28;20430;-78
2023/01/02 02:33:21;;;;;;;18.52;12.00;;;;;;;9.85;93.79;99977.16;5031491;28;20120;-78
2023/01/02 02:36:05;;;;;;;16.75;11.68;;;;;;;9.89;93.58;99976.13;5031778;28;20037;-78
2023/01/02 02:38:40;;;;;;;16.63;11.98;;;;;;;9.92;93.68;99969.97;5031392;28;20049;-78
2023/01/02 02:41:28;;;;;;;20.77;13.80;;;;;;;9.91;93.66;99965.69;5031376;28;20060;-78
2023/01/02 02:44:02;;;;;;;19.52;12.93;;;;;;;9.92;93.82;99959.56;5031332;28;20123;-78
2023/01/02 02:46:33;;;;;;;18.83;11.60;;;;;;;9.91;93.62;99950.06;5031490;28;20036;-78
2023/01/02 02:49:21;;;;;;;17.42;12.13;;;;;;;9.90;93.76;99937.94;5031137;28;20196;-78
2023/01/02 02:52:03;;;;;;;20.38;10.85;;;;;;;9.90;93.52;99932.75;5031316;28;20100;-78
2023/01/02 02:54:56;;;;;;;22.23;12.77;;;;;;;9.89;93.73;99931.91;5034813;28;20098;-78
2023/01/02 02:57:23;;;;;;;17.25;11.73;;;;;;;9.82;93.86;99913.97;5031275;28;20481;-78
2023/01/02 02:59:49;;;;;;;20.35;12.25;;;;;;;9.81;93.78;99909.69;5030575;28;20044;-78
2023/01/02 03:02:16;;;;;;;18.15;10.98;;;;;;;9.89;93.87;99924.09;5031206;28;20029;-78
2023/01/02 03:04:45;;;;;;;16.73;11.48;;;;;;;9.84;93.85;99913.03;5031604;28;20037;-78
2023/01/02 03:07:31;;;;;;;15.65;10.52;;;;;;;9.91;93.94;99924.06;5030715;28;20060;-78
2023/01/02 03:10:29;;;;;;;19.90;12.00;;;;;;;9.91;94.01;99924.06;5030821;28;20056;-78
2023/01/02 03:13:02;;;;;;;14.90;10.40;;;;;;;9.91;94.00;99921.44;5030764;28;20068;-78
2023/01/02 03:15:33;;;;;;;16.55;11.02;;;;;;;9.91;94.01;99922.28;5030769;28;20076;-78
2023/01/02 03:18:28;;;;;;;16.38;10.77;;;;;;;9.90;93.98;99923.22;5030573;28;20074;-78
2023/01/02 03:21:14;;;;;;;17.75;10.95;;;;;;;9.88;94.28;99917.22;5026719;28;20571;-78
2023/01/02 03:23:45;;;;;;;16.35;11.07;;;;;;;9.80;94.37;99895.84;5030700;28;20045;-78
2023/01/02 03:26:14;;;;;;;18.33;11.07;;;;;;;9.74;94.42;99902.16;5030316;28;20036;-78
2023/01/02 03:28:41;;;;;;;16.27;10.73;;;;;;;9.73;94.41;99895.25;5030693;28;20057;-78
2023/01/02 03:31:11;;;;;;;19.80;11.70;;;;;;;9.73;94.46;99896.97;5030453;28;20029;-78
2023/01/02 03:33:45;;;;;;;16.70;11.48;;;;;;;9.77;94.35;99908.13;5034975;28;20044;-77
2023/01/02 03:36:16;;;;;;;17.95;12.38;;;;;;;9.80;94.48;99913.22;5052601;28;20108;-78
2023/01/02 03:38:57;;;;;;;19.38;11.05;;;;;;;9.77;94.35;99905.53;5052234;28;20043;-78
2023/01/02 03:41:27;;;;;;;17.08;11.55;;;;;;;9.82;94.09;99903.59;5052797;28;20024;-78
2023/01/02 03:43:55;;;;;;;20.30;12.23;;;;;;;9.78;94.23;99899.44;5052489;28;20115;-78
2023/01/02 03:46:37;;;;;;;15.60;10.48;;;;;;;9.80;94.25;99895.00;5052742;28;20262;-78
2023/01/02 03:49:21;;;;;;;16.30;10.68;;;;;;;9.78;94.22;99902.03;5052152;28;20021;-78
2023/01/02 03:51:47;;;;;;;14.48;10.75;;;;;;;9.81;94.10;99899.28;5052653;28;20025;-78
2023/01/02 03:54:14;;;;;;;18.75;11.93;;;;;;;9.81;94.03;99902.75;5052484;28;20020;-78
2023/01/02 03:57:01;;;;;;;18.70;12.43;;;;;;;9.82;93.83;99895.78;5052582;28;20107;-78
2023/01/02 03:59:43;;;;;;;20.98;11.65;;;;;;;9.81;93.60;99889.72;5052388;28;20021;-78
2023/01/02 04:02:29;;;;;;;23.63;13.57;;;;;;;9.80;93.77;99898.44;5052323;28;20020;-78
2023/01/02 04:05:06;;;;;;;24.98;14.23;;;;;;;9.72;93.74;99887.50;5052248;28;20595;-78
2023/01/02 04:07:56;;;;;;;25.40;14.82;;;;;;;9.76;93.82;99899.47;5052307;28;20033;-78
2023/01/02 04:10:22;;;;;;;18.80;12.80;;;;;;;9.70;93.79;99887.56;5052352;28;20102;-78
2023/01/02 04:12:53;;;;;;;17.75;12.02;;;;;;;9.61;93.78;99872.31;5051553;28;20032;-78
2023/01/02 04:15:23;;;;;;;15.98;12.00;;;;;;;9.65;94.06;99880.84;5052198;28;20025;-78
2023/01/02 04:17:56;;;;;;;19.75;12.70;;;;;;;9.73;93.85;99894.38;5052125;28;20024;-78
2023/01/02 04:20:35;;;;;;;16.98;12.40;;;;;;;9.64;93.83;99880.00;5052030;28;20028;-78
2023/01/02 04:23:10;;;;;;;21.65;13.25;;;;;;;9.66;93.88;99880.78;5051913;28;20415;-78
2023/01/02 04:25:43;;;;;;;22.30;13.55;;;;;;;9.61;93.61;99874.94;5052099;28;20017;-78
2023/01/02 04:28:21;;;;;;;20.70;13.75;;;;;;;9.65;93.98;99879.09;5051815;28;20400;-78
2023/01/02 04:30:53;;;;;;;19.20;12.10;;;;;;;9.65;93.77;99878.22;5051840;28;20368;-78
2023/01/02 04:33:21;;;;;;;19.38;12.57;;;;;;;9.68;93.88;99884.16;5052088;28;20033;-78
2023/01/02 04:35:47;;;;;;;18.45;11.77;;;;;;;9.67;94.04;99876.44;5052045;28;20049;-78
2023/01/02 04:38:12;;;;;;;24.63;13.52;;;;;;;9.66;94.18;99873.00;5051769;28;20122;-78
2023/01/02 04:40:38;;;;;;;22.05;12.52;;;;;;;9.68;94.12;99872.91;5051649;28;20052;-78
2023/01/02 04:43:15;;;;;;;19.33;12.70;;;;;;;9.67;94.04;99868.63;5051392;28;20028;-78
2023/01/02 04:45:40;;;;;;;16.08;10.73;;;;;;;9.71;93.96;99868.44;5051824;28;20024;-78
2023/01/02 04:48:05;;;;;;;18.10;12.25;;;;;;;9.62;93.97;99861.00;5051519;28;20032;-78
2023/01/02 04:50:30;;;;;;;16.98;11.57;;;;;;;9.70;93.78;99871.97;5051783;28;20025;-78
2023/01/02 04:52:56;;;;;;;20.35;12.18;;;;;;;9.67;93.94;99873.84;5051536;28;20025;-78
2023/01/02 04:55:21;;;;;;;16.13;12.00;;;;;;;9.57;93.93;99856.91;5051728;28;20079;-78
2023/01/02 04:57:46;;;;;;;17.23;11.80;;;;;;;9.55;94.17;99858.72;5051668;28;20021;-78
2023/01/02 05:00:12;;;;;;;18.17;11.98;;;;;;;9.55;94.15;99853.50;5051727;28;20036;-78
2023/01/02 05:02:38;;;;;;;19.77;11.88;;;;;;;9.50;94.71;99853.69;5051533;28;20025;-78
2023/01/02 05:05:06;;;;;;;16.60;11.18;;;;;;;9.55;94.48;99867.34;5051461;28;20441;-78
2023/01/02 05:07:34;;;;;;;18.77;11.75;;;;;;;9.52;94.69;99869.22;5051385;28;20025;-78
2023/01/02 05:09:59;;;;;;;18.50;11.68;;;;;;;9.49;94.99;99871.03;5051281;28;20087;-78
2023/01/02 05:12:25;;;;;;;19.48;11.32;;;;;;;9.42;94.83;99851.38;5051661;28;20052;-78
2023/01/02 05:14:50;;;;;;;17.52;11.32;;;;;;;9.45;95.04;99868.63;5051699;28;20116;-78
2023/01/02 05:17:15;;;;;;;21.73;11.50;;;;;;;9.40;95.20;99860.16;5051409;28;20530;-78
2023/01/02 05:19:41;;;;;;;17.77;11.68;;;;;;;9.37;95.30;99855.06;5051589;28;20434;-78
2023/01/02 05:24:50;;;;;;;17.17;11.25;;;;;;;9.41;95.54;99854.88;5055564;28;20035;-78
2023/01/02 05:27:15;;;;;;;17.25;10.32;;;;;;;9.36;95.59;99833.44;5055259;28;20099;-78
2023/01/02 05:29:40;;;;;;;16.30;11.05;;;;;;;9.39;95.53;99848.88;5055361;28;20396;-78
2023/01/02 05:32:06;;;;;;;20.25;10.82;;;;;;;9.32;95.68;99833.63;5055109;28;20027;-78
2023/01/02 05:34:31;;;;;;;15.30;10.52;;;;;;;9.32;95.83;99838.81;5055249;28;20104;-78
2023/01/02 05:36:56;;;;;;;19.98;11.10;;;;;;;9.29;96.03;99842.38;5055215;28;20360;-78
2023/01/02 05:39:22;;;;;;;14.05;10.25;;;;;;;9.25;96.15;99827.78;5054907;28;20049;-78
2023/01/02 05:41:47;;;;;;;17.38;11.00;;;;;;;9.20;96.51;99827.13;5055187;28;20020;-78
2023/01/02 05:44:12;;;;;;;16.42;11.02;;;;;;;9.20;96.67;99834.91;5055014;28;20021;-78
2023/01/02 05:46:39;;;;;;;15.15;10.75;;;;;;;9.14;96.88;99829.94;5055082;28;20410;-78
2023/01/02 05:49:08;;;;;;;17.00;11.00;;;;;;;9.09;97.24;99824.91;5054778;28;20029;-78
2023/01/02 05:51:35;;;;;;;14.25;10.32;;;;;;;9.09;97.44;99824.91;5054947;28;20087;-78
2023/01/02 05:54:01;;;;;;;16.10;10.55;;;;;;;9.02;97.64;99813.09;5054535;28;20021;-78
2023/01/02 05:56:28;;;;;;;16.02;10.93;;;;;;;9.00;97.72;99807.09;5053667;28;20035;-77
2023/01/02 05:58:54;;;;;;;17.38;10.75;;;;;;;9.02;97.76;99807.88;5055011;28;20096;-78
2023/01/02 06:01:26;;;;;;;14.63;10.40;;;;;;;9.12;97.85;99822.22;5054846;28;20100;-78
2023/01/02 06:03:56;;;;;;;14.93;10.35;;;;;;;9.05;97.93;99802.56;5054641;28;20120;-78
2023/01/02 06:06:25;;;;;;;14.18;9.77;;;;;;;9.14;97.82;99817.81;5054646;28;20028;-78
2023/01/02 06:08:51;;;;;;;18.27;11.45;;;;;;;9.09;97.83;99800.69;5054442;28;20491;-78
2023/01/02 06:11:16;;;;;;;15.18;9.60;;;;;;;9.17;97.94;99809.88;5054465;28;20029;-78
2023/01/02 06:13:41;;;;;;;13.65;10.20;;;;;;;9.13;97.71;99804.88;5054485;28;20028;-78
2023/01/02 06:16:09;;;;;;;15.65;9.57;;;;;;;9.19;97.68;99818.50;5054463;28;20051;-78
2023/01/02 06:18:36;;;;;;;15.20;10.10;;;;;;;9.14;97.55;99806.56;5054547;28;20029;-78
2023/01/02 06:21:04;;;;;;;14.85;9.15;;;;;;;9.15;97.56;99811.72;5054009;28;20028;-78
2023/01/02 06:23:29;;;;;;;13.73;10.20;;;;;;;9.16;97.50;99809.97;5054416;28;20024;-78
2023/01/02 06:25:55;;;;;;;16.58;10.05;;;;;;;9.16;97.57;99809.97;5054433;28;20036;-78
2023/01/02 06:28:20;;;;;;;12.65;9.60;;;;;;;9.20;97.49;99812.38;5054116;28;20382;-78
2023/01/02 06:30:46;;;;;;;15.02;10.70;;;;;;;9.22;97.37;99809.72;5054170;28;20103;-78
2023/01/02 06:33:11;;;;;;;25.02;11.90;;;;;;;9.25;97.11;99812.19;5053898;28;20025;-77
2023/01/02 06:35:36;;;;;;;25.20;12.90;;;;;;;9.37;96.65;99816.06;5053114;28;20096;-78
2023/01/02 06:38:02;;;;;;;29.70;16.30;;;;;;;9.44;96.31;99820.16;5054332;28;20051;-78
2023/01/02 06:40:27;;;;;;;16.92;11.02;;;;;;;9.44;96.07;99805.38;5053720;28;20072;-78
2023/01/02 06:42:52;;;;;;;14.25;9.70;;;;;;;9.46;95.78;99807.91;5054008;28;20037;-78
2023/01/02 06:45:18;;;;;;;11.95;8.88;;;;;;;9.52;95.94;99820.66;5053642;28;20025;-78
2023/01/02 06:47:43;;;;;;;14.98;8.65;;;;;;;9.55;95.71;99817.94;5053862;28;20016;-78
2023/01/02 06:50:09;;;;;;;13.43;7.25;;;;;;;9.48;95.65;99804.34;5053444;28;20031;-78
2023/01/02 06:52:34;;;;;;;10.82;9.00;;;;;;;9.47;95.77;99797.44;5053607;28;20029;-78
2023/01/02 06:54:59;;;;;;;9.82;7.75;;;;;;;9.48;95.66;99806.09;5053659;28;20017;-78
2023/01/02 06:57:28;;;;;;;7.82;6.43;;;;;;;9.47;95.80;99799.19;5053736;28;20032;-78
2023/01/02 06:59:54;;;;;;;10.10;6.95;;;;;;;9.48;95.72;99803.47;5053718;28;20064;-78
2023/01/02 07:02:19;;;;;;;9.70;7.07;;;;;;;9.54;95.75;99811.06;5053282;28;20045;-78
2023/01/02 07:04:44;;;;;;;9.50;6.72;;;;;;;9.57;95.37;99810.09;5053428;28;20110;-78
2023/01/02 07:07:09;;;;;;;8.95;6.75;;;;;;;9.54;95.36;99811.06;5053381;28;20052;-78
2023/01/02 07:09:35;;;;;;;10.43;7.35;;;;;;;9.56;95.38;99808.38;5053609;28;20074;-78
2023/01/02 07:12:00;;;;;;;12.57;8.65;;;;;;;9.58;95.23;99810.03;5053572;28;20083;-77
2023/01/02 07:14:25;;;;;;;10.50;7.07;;;;;;;9.50;95.26;99805.13;5053190;28;20020;-78
2023/01/02 07:16:51;;;;;;;10.95;8.48;;;;;;;9.52;95.16;99815.47;5053369;28;20013;-78
2023/01/02 07:19:17;;;;;;;12.80;7.15;;;;;;;9.53;95.27;99819.78;5053008;28;20112;-78
2023/01/02 07:21:42;;;;;;;13.07;7.53;;;;;;;9.53;95.40;99821.53;5053046;28;20028;-78
2023/01/02 07:24:16;;;;;;;10.48;7.75;;;;;;;9.46;95.77;99816.56;5053132;28;20082;-78
2023/01/02 07:26:42;;;;;;;10.60;7.68;;;;;;;9.42;95.97;99820.19;5053076;28;20099;-78
2023/01/02 07:29:07;;;;;;;10.70;7.97;;;;;;;9.35;96.02;99829.13;5052767;28;20412;-77
2023/01/02 07:31:34;;;;;;;11.20;7.68;;;;;;;9.31;96.23;99817.16;5053087;28;20020;-78
2023/01/02 07:34:00;;;;;;;11.68;7.93;;;;;;;9.34;96.47;99826.59;5052655;28;20029;-78
2023/01/02 07:36:25;;;;;;;10.50;7.88;;;;;;;9.28;96.44;99816.44;5052643;28;20540;-77
2023/01/02 07:38:51;;;;;;;10.45;7.90;;;;;;;9.32;96.52;99818.88;5052828;28;20055;-78
2023/01/02 07:41:20;;;;;;;12.68;8.30;;;;;;;9.29;96.44;99812.94;5052740;28;20036;-77
2023/01/02 07:43:47;;;;;;;14.95;9.00;;;;;;;9.36;96.47;99828.22;5052876;28;20055;-77
2023/01/02 07:46:14;;;;;;;13.57;9.43;;;;;;;9.39;96.41;99817.69;5052597;28;20078;-77
2023/01/02 07:48:39;;;;;;;14.02;9.15;;;;;;;9.40;96.35;99816.81;5052696;28;20031;-78
2023/01/02 07:51:06;;;;;;;15.30;9.32;;;;;;;9.46;96.32;99834.75;5053208;28;20029;-78
2023/01/02 07:53:31;;;;;;;9.23;6.70;;;;;;;9.46;95.89;99806.16;5052654;28;20036;-77
2023/01/02 07:55:58;;;;;;;9.02;6.45;;;;;;;9.58;95.51;99827.38;5052551;28;20376;-77
2023/01/02 07:58:24;;;;;;;10.25;6.90;;;;;;;9.54;95.32;99807.63;5052412;28;20373;-77
2023/01/02 08:00:49;;;;;;;10.05;6.78;;;;;;;9.66;95.23;99830.53;5051248;28;20028;-78
2023/01/02 08:03:15;;;;;;;8.38;6.03;;;;;;;9.81;95.00;99831.66;5052269;28;20017;-77
2023/01/02 08:05:41;;;;;;;10.57;7.25;;;;;;;9.91;94.41;99833.84;5052522;28;20043;-78
2023/01/02 08:08:06;;;;;;;8.77;5.68;;;;;;;9.93;94.07;99815.56;5052631;28;20092;-77
2023/01/02 08:10:32;;;;;;;8.63;5.78;;;;;;;10.00;93.35;99823.03;5052236;28;20025;-78
2023/01/02 08:12:57;;;;;;;8.70;6.20;;;;;;;10.09;93.27;99828.78;5052341;28;20155;-78
2023/01/02 08:15:24;;;;;;;8.35;6.63;;;;;;;10.11;93.05;99824.34;5052091;28;20040;-78
2023/01/02 08:17:49;;;;;;;10.30;7.85;;;;;;;10.18;92.76;99821.41;5052221;28;20032;-78
2023/01/02 08:20:15;;;;;;;13.52;8.95;;;;;;;10.29;92.54;99830.59;5052180;28;20025;-78
2023/01/02 08:22:40;;;;;;;10.52;7.78;;;;;;;10.34;92.30;99826.88;5052294;28;20024;-78
2023/01/02 08:25:07;;;;;;;17.23;12.10;;;;;;;10.49;91.95;99828.81;5052244;28;20135;-78
2023/01/02 08:27:32;;;;;;;17.00;11.10;;;;;;;10.57;91.60;99810.22;5052019;28;20151;-78
2023/01/02 08:29:58;;;;;;;13.88;8.25;;;;;;;10.54;90.46;99814.75;5052370;28;20108;-78
2023/01/02 08:32:24;;;;;;;9.88;6.40;;;;;;;10.50;91.14;99816.63;5051821;28;20084;-77
2023/01/02 08:34:49;;;;;;;10.15;5.88;;;;;;;10.40;91.17;99805.75;5048964;28;20491;-78
2023/01/02 08:37:14;;;;;;;8.73;6.40;;;;;;;10.47;91.41;99821.97;5032069;28;20032;-78
2023/01/02 08:39:40;;;;;;;7.05;6.13;;;;;;;10.46;91.43;99834.16;5045223;28;20040;-78
2023/01/02 08:42:05;;;;;;;14.38;8.52;;;;;;;10.41;91.36;99825.69;5052207;28;20020;-78
2023/01/02 08:44:30;;;;;;;9.55;7.38;;;;;;;10.43;91.22;99825.63;5051641;28;20074;-78
2023/01/02 08:46:56;;;;;;;11.05;7.75;;;;;;;10.39;91.27;99817.09;5051929;28;20025;-78
2023/01/02 08:49:21;;;;;;;9.90;6.30;;;;;;;10.33;91.26;99809.56;5051828;28;20027;-78
2023/01/02 08:51:46;;;;;;;7.63;6.20;;;;;;;10.39;91.41;99831.88;5052082;28;20532;-78
2023/01/02 08:54:12;;;;;;;13.65;6.43;;;;;;;10.34;91.31;99819.06;5051741;28;20523;-78
2023/01/02 08:56:38;;;;;;;10.55;6.18;;;;;;;10.35;91.49;99827.72;5051440;28;20099;-78
2023/01/02 08:59:09;;;;;;;15.40;6.65;;;;;;;10.39;91.14;99830.09;5057384;28;20460;-77
2023/01/02 09:01:35;;;;;;;9.82;7.22;;;;;;;10.37;91.03;99807.69;5057931;28;20019;-78
2023/01/02 09:04:01;;;;;;;9.23;6.53;;;;;;;10.43;90.88;99816.03;5058425;28;20025;-78
2023/01/02 09:06:28;;;;;;;9.40;7.18;;;;;;;10.46;90.75;99812.47;5058072;28;20024;-78
2023/01/02 09:08:57;;;;;;;11.50;7.07;;;;;;;10.51;90.76;99839.16;5058419;28;20025;-77
2023/01/02 09:11:25;;;;;;;10.25;7.30;;;;;;;10.52;90.95;99834.78;5058097;28;20100;-76
2023/01/02 09:13:51;;;;;;;9.40;6.85;;;;;;;10.58;90.56;99824.97;5058190;28;20025;-76
2023/01/02 09:16:17;;;;;;;10.32;7.10;;;;;;;10.57;90.13;99825.00;5058005;28;20532;-77
2023/01/02 09:18:42;;;;;;;11.27;7.70;;;;;;;10.60;90.65;99827.50;5058433;28;20052;-77
2023/01/02 09:21:07;;;;;;;9.60;6.88;;;;;;;10.64;90.57;99831.66;5058288;28;20021;-77
2023/01/02 09:23:33;;;;;;;9.32;7.20;;;;;;;10.68;89.79;99826.25;5057905;28;20441;-76
2023/01/02 09:26:00;;;;;;;9.93;6.32;;;;;;;10.67;89.56;99821.94;5057085;28;20013;-77
2023/01/02 09:28:27;;;;;;;10.50;6.50;;;;;;;10.67;89.68;99818.50;5057684;28;20031;-77
2023/01/02 09:30:52;;;;;;;12.18;7.13;;;;;;;10.82;88.92;99820.41;5057783;28;20028;-76
2023/01/02 09:33:17;;;;;;;9.40;7.05;;;;;;;10.85;88.93;99816.81;5057703;28;20029;-77
2023/01/02 09:35:43;;;;;;;9.00;6.63;;;;;;;10.87;89.08;99838.44;5057798;28;20041;-77
2023/01/02 09:38:08;;;;;;;15.43;8.10;;;;;;;10.73;89.35;99826.88;5057906;28;20472;-77
2023/01/02 09:40:35;;;;;;;18.88;7.55;;;;;;;10.93;88.92;99835.56;5057203;28;20480;-77
2023/01/02 09:43:02;;;;;;;11.27;6.95;;;;;;;10.99;88.22;99820.50;5056316;28;20425;-77
2023/01/02 09:45:28;;;;;;;9.05;6.35;;;;;;;10.98;88.39;99808.38;5057108;28;20059;-77
2023/01/02 09:47:57;;;;;;;10.43;7.43;;;;;;;11.04;88.36;99827.25;5057325;28;20031;-77
2023/01/02 09:50:29;;;;;;;11.40;6.75;;;;;;;11.00;88.56;99826.56;5057720;28;20021;-77
2023/01/02 09:52:59;;;;;;;13.68;7.65;;;;;;;11.07;88.64;99816.69;5057762;28;20021;-77
2023/01/02 09:55:33;;;;;;;11.40;7.25;;;;;;;11.12;88.23;99825.16;5057549;28;20025;-77
2023/01/02 09:58:13;;;;;;;12.35;7.25;;;;;;;11.06;88.28;99817.63;5057392;28;20027;-77
2023/01/02 10:00:40;;;;;;;22.10;9.25;;;;;;;11.16;88.04;99813.66;5057673;28;20021;-77
2023/01/02 10:03:34;;;;;;;17.58;9.35;;;;;;;11.26;87.88;99824.53;5057612;28;20368;-77
2023/01/02 10:06:07;;;;;;;27.85;10.80;;;;;;;11.24;88.11;99811.53;5057285;28;20033;-77
2023/01/02 10:08:53;;;;;;;20.58;8.98;;;;;;;11.43;87.72;99819.38;5057433;28;20028;-77
2023/01/02 10:11:24;;;;;;;22.38;9.63;;;;;;;11.65;87.32;99834.81;5053604;28;20021;-77
2023/01/02 10:13:57;;;;;;;26.48;10.95;;;;;;;11.71;86.40;99830.16;5035762;28;20025;-77
2023/01/02 10:16:27;;;;;;;23.25;10.13;;;;;;;11.84;86.67;99827.84;5035833;28;20029;-77
2023/01/02 10:18:54;;;;;;;22.50;11.85;;;;;;;11.99;86.36;99826.22;5045834;28;20055;-77
2023/01/02 10:21:27;;;;;;;15.57;10.60;;;;;;;12.04;85.42;99818.16;5054039;28;20021;-77
2023/01/02 10:24:06;;;;;;;12.25;8.73;;;;;;;11.95;85.89;99809.88;5053862;28;20103;-77
2023/01/02 10:26:35;;;;;;;12.85;8.45;;;;;;;11.88;85.83;99818.94;5053617;28;20028;-77
2023/01/02 10:29:15;;;;;;;11.45;8.50;;;;;;;11.96;86.15;99818.53;5053537;28;20534;-77
2023/01/02 10:31:49;;;;;;;12.90;7.57;;;;;;;11.98;85.21;99794.06;5053632;28;20021;-77
2023/01/02 10:34:22;;;;;;;12.00;6.38;;;;;;;11.98;85.41;99780.16;5053958;28;20027;-77
2023/01/02 10:36:48;;;;;;;14.68;8.55;;;;;;;12.07;85.50;99790.13;5053617;28;20032;-77
2023/01/02 10:39:21;;;;;;;11.23;7.07;;;;;;;12.20;85.25;99793.81;5053498;28;20541;-77
2023/01/02 10:41:49;;;;;;;14.60;8.00;;;;;;;12.24;84.96;99781.44;5053592;28;20068;-77
2023/01/02 10:44:21;;;;;;;11.60;7.18;;;;;;;12.30;85.12;99778.50;5053960;28;20025;-77
2023/01/02 10:46:46;;;;;;;11.15;6.93;;;;;;;12.28;84.64;99764.69;5053893;28;20483;-77
2023/01/02 10:49:12;;;;;;;9.82;6.57;;;;;;;12.36;84.60;99773.00;5053740;28;20104;-77
2023/01/02 10:51:44;;;;;;;11.07;7.15;;;;;;;12.37;83.30;99772.06;5053506;28;20361;-77
2023/01/02 10:54:10;;;;;;;9.82;6.57;;;;;;;12.26;84.40;99756.09;5053712;28;20526;-77
2023/01/02 10:56:39;;;;;;;11.73;7.47;;;;;;;12.27;84.87;99767.41;5053853;28;20055;-77
2023/01/02 10:59:26;;;;;;;10.23;6.70;;;;;;;12.35;84.71;99765.25;5053915;28;20380;-77
2023/01/02 11:01:55;;;;;;;12.85;7.10;;;;;;;12.30;84.31;99768.06;5053608;28;20100;-77
2023/01/02 11:04:23;;;;;;;12.05;7.40;;;;;;;12.26;85.13;99771.75;5053270;28;20028;-77
2023/01/02 11:06:55;;;;;;;10.02;6.60;;;;;;;12.18;85.49;99769.56;5053793;28;20025;-77
2023/01/02 11:09:27;;;;;;;12.15;7.88;;;;;;;12.26;85.40;99778.75;5053237;28;20457;-77
2023/01/02 11:12:00;;;;;;;15.60;9.23;;;;;;;12.18;85.24;99761.72;5053453;28;20465;-77
2023/01/02 11:14:34;;;;;;;11.45;8.23;;;;;;;12.20;85.74;99759.03;5053378;28;20035;-77
2023/01/02 11:17:21;;;;;;;15.55;9.70;;;;;;;12.23;86.00;99766.72;5053552;28;20600;-77
2023/01/02 11:19:53;;;;;;;11.95;7.78;;;;;;;12.24;85.93;99765.78;5053493;28;20566;-77
2023/01/02 11:22:22;;;;;;;14.55;9.35;;;;;;;12.22;85.64;99765.03;5053138;28;20020;-78
2023/01/02 11:24:51;;;;;;;12.15;8.27;;;;;;;12.26;86.32;99768.31;5053301;28;20029;-78
2023/01/02 11:27:16;;;;;;;10.95;7.97;;;;;;;12.26;86.39;99766.53;5053084;28;20025;-78
2023/01/02 11:29:46;;;;;;;9.57;7.50;;;;;;;12.25;86.36;99743.97;5053478;28;20146;-77
2023/01/02 11:32:21;;;;;;;8.80;6.57;;;;;;;12.34;85.12;99753.91;5053145;28;20104;-77
2023/01/02 11:34:55;;;;;;;7.80;5.50;;;;;;;12.31;85.05;99758.50;5053286;28;20460;-77
2023/01/02 11:37:21;;;;;;;7.75;5.35;;;;;;;12.37;84.66;99760.75;5052900;28;20024;-77
2023/01/02 11:40:04;;;;;;;6.28;4.82;;;;;;;12.58;84.47;99772.69;5051936;28;20594;-77